Time;durP1;ratioP1;P1;durP2;ratioP2;P2;SDS_P1;SDS_P2;PMS_P1;PMS_P2;Temp;Humidity;BMP_temperature;BMP_pressure;BME280_temperature;BME280_humidity;BME280_pressure;Samples;Min_cycle;Max_cycle;Signal;HPM_P1;HPM_P2
2022/04/16 00:00:17;;;;;;;17.25;11.48;;;11.50;99.90;;;;;;5014050;28;20090;-86
2022/04/16 00:02:47;;;;;;;15.60;11.70;;;11.50;99.90;;;;;;5000957;28;20026;-85
2022/04/16 00:05:13;;;;;;;14.82;11.52;;;11.50;99.90;;;;;;4995965;28;20019;-85
2022/04/16 00:07:40;;;;;;;15.38;11.82;;;11.40;99.90;;;;;;4978198;28;20042;-86
2022/04/16 00:10:06;;;;;;;15.52;11.80;;;11.40;99.90;;;;;;4993512;28;20050;-86
2022/04/16 00:12:32;;;;;;;16.10;11.73;;;11.40;99.90;;;;;;4976041;28;20033;-85
2022/04/16 00:14:58;;;;;;;15.38;11.38;;;11.30;99.90;;;;;;4993178;28;20026;-85
2022/04/16 00:17:24;;;;;;;13.93;10.93;;;11.30;99.90;;;;;;4977137;28;20030;-85
2022/04/16 00:19:49;;;;;;;14.27;11.10;;;11.30;99.90;;;;;;4977047;28;20061;-86
2022/04/16 00:22:15;;;;;;;15.93;11.40;;;11.30;99.90;;;;;;4992915;28;20058;-86
2022/04/16 00:24:41;;;;;;;15.60;11.27;;;11.20;99.90;;;;;;4993430;28;20019;-85
2022/04/16 00:27:10;;;;;;;12.80;10.88;;;11.20;99.90;;;;;;4994277;28;20026;-85
2022/04/16 00:29:36;;;;;;;13.63;11.27;;;11.20;99.90;;;;;;4993512;28;20038;-86
2022/04/16 00:32:05;;;;;;;16.80;11.27;;;11.10;99.90;;;;;;4993204;28;20037;-85
2022/04/16 00:34:34;;;;;;;13.52;11.07;;;11.10;99.90;;;;;;4992733;28;20455;-86
2022/04/16 00:37:01;;;;;;;15.48;11.77;;;11.10;99.90;;;;;;4992735;28;20038;-86
2022/04/16 00:39:26;;;;;;;15.02;11.32;;;11.10;99.90;;;;;;4992553;28;20045;-86
2022/04/16 00:41:52;;;;;;;13.52;10.63;;;11.00;99.90;;;;;;4977107;28;20034;-86
2022/04/16 00:44:19;;;;;;;15.85;11.35;;;11.00;99.90;;;;;;4992776;28;20038;-86
2022/04/16 00:46:45;;;;;;;16.05;12.45;;;11.00;99.90;;;;;;4977039;28;20030;-86
2022/04/16 00:49:11;;;;;;;13.80;11.30;;;11.00;99.90;;;;;;4976748;28;20026;-86
2022/04/16 00:51:37;;;;;;;14.73;12.02;;;10.90;99.90;;;;;;4993027;28;20025;-86
2022/04/16 00:54:03;;;;;;;16.50;11.73;;;10.90;99.90;;;;;;4976723;28;20031;-86
2022/04/16 00:56:29;;;;;;;13.80;11.60;;;10.90;99.90;;;;;;4992428;28;20023;-85
2022/04/16 00:58:55;;;;;;;15.63;11.80;;;10.80;99.90;;;;;;4976646;28;20038;-84
2022/04/16 01:01:21;;;;;;;15.95;11.80;;;10.80;99.90;;;;;;4993054;28;20085;-86
2022/04/16 01:03:47;;;;;;;17.27;11.70;;;10.80;99.90;;;;;;4978093;28;20046;-85
2022/04/16 01:06:15;;;;;;;17.25;12.32;;;10.80;99.90;;;;;;4976188;28;20031;-85
2022/04/16 01:08:44;;;;;;;15.68;12.25;;;10.70;99.90;;;;;;4992874;28;20038;-84
2022/04/16 01:11:11;;;;;;;15.65;12.40;;;10.70;99.90;;;;;;4995900;28;20030;-85
2022/04/16 01:13:37;;;;;;;16.23;12.52;;;10.70;99.90;;;;;;4996688;28;20034;-86
2022/04/16 01:16:05;;;;;;;16.85;11.80;;;10.70;99.90;;;;;;4996752;28;20030;-86
2022/04/16 01:18:31;;;;;;;17.73;12.52;;;10.60;99.90;;;;;;4996526;28;20047;-86
2022/04/16 01:20:57;;;;;;;18.25;12.50;;;10.60;99.90;;;;;;4996644;28;20026;-86
2022/04/16 01:23:23;;;;;;;16.17;12.23;;;10.60;99.90;;;;;;4980482;28;20073;-87
2022/04/16 01:25:48;;;;;;;15.05;11.95;;;10.60;99.90;;;;;;4996768;28;20105;-85
2022/04/16 01:28:14;;;;;;;16.20;12.45;;;10.50;99.90;;;;;;4996346;28;20034;-85
2022/04/16 01:30:40;;;;;;;16.55;12.38;;;10.50;99.90;;;;;;4979881;28;20030;-86
2022/04/16 01:33:05;;;;;;;15.80;12.20;;;10.50;99.90;;;;;;4980343;28;20434;-86
2022/04/16 01:35:32;;;;;;;17.23;13.00;;;10.50;99.90;;;;;;4995969;28;20030;-86
2022/04/16 01:37:57;;;;;;;16.85;12.93;;;10.50;99.90;;;;;;4996460;28;20123;-86
2022/04/16 01:40:26;;;;;;;17.80;13.25;;;10.50;99.90;;;;;;4980091;28;20027;-87
2022/04/16 01:42:56;;;;;;;18.75;13.25;;;10.50;99.90;;;;;;4996398;28;20379;-86
2022/04/16 01:45:23;;;;;;;17.50;12.63;;;10.40;99.90;;;;;;4980768;28;20026;-86
2022/04/16 01:47:50;;;;;;;17.13;13.60;;;10.40;99.90;;;;;;4996372;28;20033;-86
2022/04/16 01:50:16;;;;;;;16.50;13.57;;;10.40;99.90;;;;;;4996524;28;20023;-86
2022/04/16 01:52:42;;;;;;;16.73;12.98;;;10.30;99.90;;;;;;4996240;28;20040;-87
2022/04/16 01:55:09;;;;;;;18.67;14.05;;;10.30;99.90;;;;;;4996365;28;20026;-86
2022/04/16 01:57:36;;;;;;;18.42;13.90;;;10.30;99.90;;;;;;4979796;28;20046;-86
2022/04/16 02:00:04;;;;;;;19.45;14.45;;;10.20;99.90;;;;;;4996152;28;20415;-86
2022/04/16 02:02:30;;;;;;;22.05;15.27;;;10.20;99.90;;;;;;4995977;28;20030;-87
2022/04/16 02:04:55;;;;;;;17.73;14.02;;;10.20;99.90;;;;;;4983167;28;20030;-87
2022/04/16 02:07:21;;;;;;;20.33;14.95;;;10.20;99.90;;;;;;5020419;28;20133;-87
2022/04/16 02:09:47;;;;;;;17.67;14.30;;;10.20;99.90;;;;;;5004274;28;20011;-86
2022/04/16 02:12:13;;;;;;;19.77;14.60;;;10.10;99.90;;;;;;5020085;28;20039;-85
2022/04/16 02:14:38;;;;;;;19.13;14.18;;;10.10;99.90;;;;;;5003490;28;20038;-86
2022/04/16 02:17:04;;;;;;;16.70;14.07;;;10.10;99.90;;;;;;5020112;28;20014;-86
2022/04/16 02:19:32;;;;;;;18.30;14.35;;;10.10;99.90;;;;;;5002931;28;20094;-87
2022/04/16 02:21:58;;;;;;;19.92;14.32;;;10.00;99.90;;;;;;4999616;28;20135;-87
2022/04/16 02:24:24;;;;;;;19.13;14.15;;;10.00;99.90;;;;;;4986024;28;20037;-86
2022/04/16 02:26:50;;;;;;;17.63;13.95;;;10.00;99.90;;;;;;4982232;28;20030;-86
2022/04/16 02:29:16;;;;;;;20.17;15.05;;;10.00;99.90;;;;;;4966381;28;20034;-86
2022/04/16 02:31:42;;;;;;;19.73;14.57;;;10.00;99.90;;;;;;4993805;28;20033;-86
2022/04/16 02:34:11;;;;;;;18.73;14.77;;;9.90;99.90;;;;;;4978934;28;20030;-87
2022/04/16 02:36:37;;;;;;;21.38;15.38;;;9.90;99.90;;;;;;4978328;28;20038;-86
2022/04/16 02:39:04;;;;;;;19.90;14.48;;;9.90;99.90;;;;;;4978370;28;20545;-87
2022/04/16 02:41:29;;;;;;;19.38;14.38;;;9.90;99.90;;;;;;4994660;28;20417;-87
2022/04/16 02:43:55;;;;;;;23.50;16.13;;;9.80;99.90;;;;;;4994813;28;20018;-87
2022/04/16 02:49:14;;;;;;;19.17;15.38;;;9.80;99.90;;;;;;4995085;28;20133;-87
2022/04/16 02:51:39;;;;;;;22.60;15.20;;;9.80;99.90;;;;;;4978087;28;20038;-87
2022/04/16 02:54:05;;;;;;;21.05;14.60;;;9.70;99.90;;;;;;4978456;28;20030;-86
2022/04/16 02:56:31;;;;;;;19.88;16.05;;;9.70;99.90;;;;;;4977887;28;20030;-86
2022/04/16 02:58:57;;;;;;;21.73;16.10;;;9.70;99.90;;;;;;4993959;28;20487;-87
2022/04/16 03:01:23;;;;;;;21.55;15.65;;;9.70;99.90;;;;;;4978266;28;20030;-86
2022/04/16 03:03:48;;;;;;;22.38;16.67;;;9.70;99.90;;;;;;4978351;28;20022;-87
2022/04/16 03:06:14;;;;;;;19.10;14.77;;;9.60;99.90;;;;;;4977947;28;20035;-86
2022/04/16 03:08:39;;;;;;;20.67;15.05;;;9.60;99.90;;;;;;4993951;28;20038;-86
2022/04/16 03:11:05;;;;;;;21.55;15.13;;;9.60;99.90;;;;;;4994206;28;20027;-87
2022/04/16 03:13:34;;;;;;;19.67;14.65;;;9.60;99.90;;;;;;4977623;28;20026;-87
2022/04/16 03:18:47;;;;;;;19.70;15.27;;;9.60;99.90;;;;;;4994035;28;20124;-87
2022/04/16 03:21:13;;;;;;;20.65;15.13;;;9.50;99.90;;;;;;4993791;28;20027;-87
2022/04/16 03:23:39;;;;;;;23.27;15.48;;;9.50;99.90;;;;;;4995408;28;20494;-87
2022/04/16 03:26:05;;;;;;;25.30;16.95;;;9.50;99.90;;;;;;4978328;28;20045;-87
2022/04/16 03:28:32;;;;;;;19.20;14.90;;;9.50;99.90;;;;;;4977852;28;20030;-87
2022/04/16 03:30:58;;;;;;;22.00;15.63;;;9.50;99.90;;;;;;4977107;28;20410;-86
2022/04/16 03:33:24;;;;;;;22.77;16.70;;;9.40;99.90;;;;;;4977908;28;20120;-85
2022/04/16 03:35:51;;;;;;;21.48;14.82;;;9.40;99.90;;;;;;4977622;28;20570;-86
2022/04/16 03:38:17;;;;;;;19.58;15.32;;;9.40;99.90;;;;;;4977314;28;20065;-86
2022/04/16 03:40:44;;;;;;;23.60;16.40;;;9.40;99.90;;;;;;4993266;28;20033;-86
2022/04/16 03:43:10;;;;;;;21.45;16.27;;;9.40;99.90;;;;;;4977471;28;20059;-87
2022/04/16 03:45:36;;;;;;;20.90;15.90;;;9.40;99.90;;;;;;4993438;28;20085;-86
2022/04/16 03:48:04;;;;;;;23.02;16.20;;;9.30;99.90;;;;;;4993591;28;20454;-86
2022/04/16 03:50:31;;;;;;;20.27;15.48;;;9.30;99.90;;;;;;4993298;28;20050;-87
2022/04/16 03:52:58;;;;;;;21.73;16.08;;;9.30;99.90;;;;;;4994723;28;20073;-87
2022/04/16 04:00:56;;;;;;;21.90;16.25;;;9.20;99.90;;;;;;4993386;28;20562;-87
2022/04/16 04:03:22;;;;;;;21.88;16.40;;;9.20;99.90;;;;;;4993399;28;20030;-86
2022/04/16 04:05:49;;;;;;;23.75;16.85;;;9.20;99.90;;;;;;4976833;28;20030;-86
2022/04/16 04:08:16;;;;;;;23.20;17.58;;;9.20;99.90;;;;;;4992940;28;20037;-86
2022/04/16 04:10:41;;;;;;;20.58;16.48;;;9.10;99.90;;;;;;4976640;28;20077;-87
2022/04/16 04:13:07;;;;;;;23.52;16.92;;;9.10;99.90;;;;;;4993029;28;20030;-87
2022/04/16 04:15:33;;;;;;;21.88;16.50;;;9.10;99.90;;;;;;4992830;28;20037;-86
2022/04/16 04:18:00;;;;;;;24.00;17.20;;;9.10;99.90;;;;;;4976674;28;20455;-86
2022/04/16 04:20:29;;;;;;;23.77;16.85;;;9.10;99.90;;;;;;4976734;28;20030;-86
2022/04/16 04:22:55;;;;;;;23.00;16.92;;;9.00;99.90;;;;;;4992455;28;20042;-86
2022/04/16 04:25:21;;;;;;;22.63;17.48;;;9.10;99.90;;;;;;4976865;28;20459;-86
2022/04/16 04:27:47;;;;;;;23.27;16.45;;;9.00;99.90;;;;;;4976608;28;20048;-87
2022/04/16 04:30:13;;;;;;;23.45;17.98;;;9.00;99.90;;;;;;4976709;28;20472;-86
2022/04/16 04:32:39;;;;;;;20.48;16.42;;;9.00;99.90;;;;;;4992521;28;20394;-87
2022/04/16 04:35:06;;;;;;;23.55;17.15;;;9.00;99.90;;;;;;4992832;28;20034;-86
2022/04/16 04:37:32;;;;;;;22.67;17.10;;;9.00;99.90;;;;;;4976687;28;20459;-86
2022/04/16 04:39:58;;;;;;;25.25;17.25;;;8.90;99.90;;;;;;4992553;28;20038;-86
2022/04/16 04:42:24;;;;;;;26.33;17.85;;;8.90;99.90;;;;;;4976549;28;20030;-87
2022/04/16 04:44:50;;;;;;;23.50;17.23;;;8.90;99.90;;;;;;4976153;28;20536;-86
2022/04/16 04:47:16;;;;;;;25.10;18.13;;;8.90;99.90;;;;;;4976369;28;20023;-86
2022/04/16 04:49:42;;;;;;;22.15;18.00;;;8.90;99.90;;;;;;4991668;28;20097;-86
2022/04/16 04:52:08;;;;;;;22.98;17.23;;;8.90;99.90;;;;;;4976604;28;20061;-87
2022/04/16 04:54:33;;;;;;;26.25;18.48;;;8.90;99.90;;;;;;4992548;28;20436;-87
2022/04/16 04:56:59;;;;;;;26.90;19.30;;;8.80;99.90;;;;;;4976164;28;20098;-86
2022/04/16 04:59:25;;;;;;;23.33;18.90;;;8.80;99.90;;;;;;4992370;28;20038;-86
2022/04/16 05:01:50;;;;;;;29.13;19.88;;;8.80;99.90;;;;;;4992193;28;20026;-86
2022/04/16 05:04:16;;;;;;;25.98;18.73;;;8.80;99.90;;;;;;4992436;28;20027;-87
2022/04/16 05:06:42;;;;;;;26.17;19.48;;;8.80;99.90;;;;;;4976330;28;20066;-86
2022/04/16 05:09:09;;;;;;;25.38;19.23;;;8.80;99.90;;;;;;4976381;28;20463;-86
2022/04/16 05:11:35;;;;;;;26.38;18.58;;;8.80;99.90;;;;;;4976327;28;20050;-86
2022/04/16 05:14:01;;;;;;;24.95;18.80;;;8.80;99.90;;;;;;4992105;28;20497;-87
2022/04/16 05:16:26;;;;;;;25.02;18.15;;;8.80;99.90;;;;;;4992372;28;20478;-86
2022/04/16 05:18:52;;;;;;;25.70;18.42;;;8.80;99.90;;;;;;4975893;28;20491;-87
2022/04/16 05:21:18;;;;;;;26.08;18.95;;;8.80;99.90;;;;;;4976317;28;20030;-85
2022/04/16 05:23:43;;;;;;;27.00;19.15;;;8.80;99.90;;;;;;4992369;28;20126;-87
2022/04/16 05:26:10;;;;;;;25.08;19.85;;;8.80;99.90;;;;;;4992802;28;20027;-86
2022/04/16 05:28:39;;;;;;;28.08;21.15;;;8.80;99.90;;;;;;4976718;28;20494;-86
2022/04/16 05:31:08;;;;;;;28.27;19.98;;;8.80;99.90;;;;;;4992320;28;20475;-87
2022/04/16 05:36:19;;;;;;;25.98;20.27;;;8.80;99.90;;;;;;4994675;28;20458;-87
2022/04/16 05:38:45;;;;;;;31.08;21.05;;;8.80;99.90;;;;;;4993277;28;20034;-87
2022/04/16 05:41:11;;;;;;;29.98;22.15;;;8.80;99.90;;;;;;4994615;28;20037;-86
2022/04/16 05:43:37;;;;;;;29.27;21.83;;;8.80;99.90;;;;;;4977124;28;20081;-87
2022/04/16 05:46:02;;;;;;;27.70;21.00;;;8.80;99.90;;;;;;4993155;28;20526;-86
2022/04/16 05:48:28;;;;;;;29.30;22.50;;;8.80;99.90;;;;;;5001256;28;20033;-87
2022/04/16 05:50:57;;;;;;;30.20;22.73;;;8.80;99.90;;;;;;4998631;28;20082;-85
2022/04/16 05:53:23;;;;;;;30.70;22.65;;;8.90;99.90;;;;;;5017539;28;20010;-87
2022/04/16 05:55:52;;;;;;;32.35;22.95;;;8.90;99.90;;;;;;5000317;28;20163;-89
2022/04/16 05:58:18;;;;;;;34.25;23.20;;;8.90;99.90;;;;;;5002519;28;20053;-87
2022/04/16 06:00:44;;;;;;;32.10;23.80;;;8.90;99.90;;;;;;5003842;28;20010;-86
2022/04/16 06:03:09;;;;;;;31.45;23.60;;;8.90;99.90;;;;;;5001642;28;20041;-86
2022/04/16 06:05:36;;;;;;;28.83;22.15;;;8.90;99.90;;;;;;5012261;28;20034;-86
2022/04/16 06:08:02;;;;;;;33.80;22.80;;;8.90;99.90;;;;;;4999831;28;20088;-85
2022/04/16 06:10:28;;;;;;;30.48;23.48;;;8.90;99.90;;;;;;4979420;28;20022;-87
2022/04/16 06:12:53;;;;;;;32.75;22.40;;;9.00;99.90;;;;;;4995196;28;20061;-87
2022/04/16 06:15:19;;;;;;;28.17;22.20;;;9.00;99.90;;;;;;4979080;28;20026;-87
2022/04/16 06:17:45;;;;;;;32.28;22.60;;;9.00;99.90;;;;;;4979115;28;20030;-87
2022/04/16 06:20:11;;;;;;;30.10;22.35;;;9.00;99.90;;;;;;4995035;28;20117;-87
2022/04/16 06:22:37;;;;;;;31.23;22.58;;;9.00;99.90;;;;;;4975632;28;20487;-87
2022/04/16 06:25:05;;;;;;;32.85;23.95;;;9.10;99.90;;;;;;4975745;28;20042;-87
2022/04/16 06:27:31;;;;;;;30.80;23.55;;;9.10;99.90;;;;;;4991891;28;20062;-87
2022/04/16 06:29:57;;;;;;;34.00;25.05;;;9.10;99.90;;;;;;4991781;28;20062;-86
2022/04/16 06:32:22;;;;;;;31.90;23.35;;;9.10;99.90;;;;;;4975538;28;20031;-87
2022/04/16 06:34:48;;;;;;;32.88;24.33;;;9.20;99.90;;;;;;4975279;28;20136;-87
2022/04/16 06:37:13;;;;;;;32.47;23.90;;;9.20;99.90;;;;;;4995547;28;20031;-86
2022/04/16 06:39:41;;;;;;;30.77;23.15;;;9.20;99.90;;;;;;4995452;28;20083;-86
2022/04/16 06:42:06;;;;;;;32.65;23.83;;;9.20;99.90;;;;;;4994645;28;20034;-86
2022/04/16 06:44:32;;;;;;;30.30;22.17;;;9.30;99.90;;;;;;4991874;28;20027;-86
2022/04/16 06:47:01;;;;;;;30.02;22.75;;;9.30;99.90;;;;;;4979667;28;20050;-86
2022/04/16 06:49:27;;;;;;;28.60;22.35;;;9.30;99.90;;;;;;4977177;28;20098;-86
2022/04/16 06:51:52;;;;;;;30.00;22.48;;;9.40;99.90;;;;;;4978472;28;20031;-86
2022/04/16 06:54:18;;;;;;;30.17;22.85;;;9.40;99.90;;;;;;4994630;28;20379;-85
2022/04/16 06:56:44;;;;;;;30.52;23.25;;;9.40;99.90;;;;;;4980061;28;20035;-87
2022/04/16 06:59:10;;;;;;;29.70;22.10;;;9.40;99.90;;;;;;4977118;28;20973;-87
2022/04/16 07:01:41;;;;;;;30.15;22.42;;;9.50;99.90;;;;;;4976800;28;20033;-87
2022/04/16 07:04:07;;;;;;;27.20;21.52;;;9.50;99.90;;;;;;4982439;28;20031;-86
2022/04/16 07:06:32;;;;;;;28.48;21.98;;;9.60;99.90;;;;;;4978723;28;20468;-86
2022/04/16 07:08:58;;;;;;;26.58;20.67;;;9.60;99.90;;;;;;4978871;28;20098;-87
2022/04/16 07:11:24;;;;;;;29.52;21.08;;;9.60;99.90;;;;;;4992750;28;20081;-87
2022/04/16 07:13:49;;;;;;;29.38;21.38;;;9.70;99.90;;;;;;4975343;28;20468;-86
2022/04/16 07:16:15;;;;;;;30.98;21.98;;;9.80;99.90;;;;;;4975260;28;20026;-88
2022/04/16 07:18:41;;;;;;;27.73;21.08;;;9.80;99.90;;;;;;4976545;28;20031;-86
2022/04/16 07:21:06;;;;;;;30.08;20.35;;;9.80;99.90;;;;;;4991115;28;20031;-86
2022/04/16 07:23:32;;;;;;;24.80;18.80;;;9.90;99.90;;;;;;4990716;28;20059;-87
2022/04/16 07:25:58;;;;;;;27.15;20.70;;;9.90;99.90;;;;;;4991911;28;20034;-86
2022/04/16 07:28:23;;;;;;;27.33;20.52;;;10.00;99.90;;;;;;4991751;28;20027;-87
2022/04/16 07:30:52;;;;;;;26.67;20.25;;;10.00;99.90;;;;;;4974963;28;20030;-86
2022/04/16 07:33:18;;;;;;;25.33;19.80;;;10.10;99.90;;;;;;4990802;28;20030;-86
2022/04/16 07:35:44;;;;;;;27.00;20.58;;;10.20;99.90;;;;;;4990798;28;20049;-86
2022/04/16 07:38:10;;;;;;;29.58;19.77;;;10.30;99.90;;;;;;4990524;28;20441;-85
2022/04/16 07:40:36;;;;;;;27.55;21.35;;;10.40;99.90;;;;;;4990431;28;20035;-86
2022/04/16 07:43:02;;;;;;;25.73;19.55;;;10.40;99.90;;;;;;4977962;28;20081;-87
2022/04/16 07:45:28;;;;;;;23.67;18.90;;;10.50;99.90;;;;;;4990689;28;20077;-86
2022/04/16 07:47:54;;;;;;;26.17;19.55;;;10.50;99.90;;;;;;4973084;28;20114;-86
2022/04/16 07:50:20;;;;;;;24.67;19.45;;;10.60;99.90;;;;;;4956696;28;20118;-86
2022/04/16 07:52:47;;;;;;;24.05;18.90;;;10.70;99.90;;;;;;4974448;28;20041;-86
2022/04/16 07:55:13;;;;;;;22.63;18.67;;;10.70;99.90;;;;;;4974067;28;20019;-87
2022/04/16 07:57:39;;;;;;;23.13;18.10;;;10.80;99.90;;;;;;4973850;28;20027;-86
2022/04/16 08:00:07;;;;;;;25.30;17.67;;;10.90;99.90;;;;;;4943108;28;20125;-87
2022/04/16 08:02:33;;;;;;;23.73;17.77;;;10.90;99.90;;;;;;4975414;28;20027;-87
2022/04/16 08:04:58;;;;;;;23.40;18.33;;;11.00;99.90;;;;;;4975667;28;20463;-87
2022/04/16 08:07:24;;;;;;;23.50;17.52;;;11.10;99.90;;;;;;4958187;28;20065;-86
2022/04/16 08:09:50;;;;;;;22.00;17.58;;;11.30;99.90;;;;;;4974073;28;20061;-86
2022/04/16 08:12:16;;;;;;;22.13;17.23;;;11.30;99.90;;;;;;4957816;28;20034;-86
2022/04/16 08:14:42;;;;;;;20.67;16.23;;;11.40;99.90;;;;;;4973848;28;20169;-87
2022/04/16 08:17:08;;;;;;;21.85;16.98;;;11.50;99.90;;;;;;4973730;28;20537;-86
2022/04/16 08:19:34;;;;;;;21.95;16.90;;;11.60;99.90;;;;;;4957541;28;20034;-86
2022/04/16 08:21:59;;;;;;;21.20;16.70;;;11.70;99.90;;;;;;4990385;28;20133;-87
2022/04/16 08:26:57;;;;;;;19.42;15.55;;;11.80;99.90;;;;;;4994544;28;20031;-86
2022/04/16 08:29:23;;;;;;;20.77;15.68;;;11.90;99.90;;;;;;4978139;28;20041;-86
2022/04/16 08:31:49;;;;;;;19.30;15.45;;;12.00;99.90;;;;;;4977265;28;20410;-86
2022/04/16 08:34:15;;;;;;;21.15;15.60;;;12.10;99.90;;;;;;4976741;28;20042;-87
2022/04/16 08:36:41;;;;;;;20.20;15.75;;;12.20;99.90;;;;;;4976870;28;20026;-86
2022/04/16 08:39:06;;;;;;;22.35;15.38;;;12.30;99.90;;;;;;4976830;28;20038;-86
2022/04/16 08:41:34;;;;;;;18.98;14.52;;;12.40;99.90;;;;;;4961169;28;20054;-87
2022/04/16 08:44:00;;;;;;;17.63;13.57;;;12.50;99.90;;;;;;4979953;28;20052;-86
2022/04/16 08:46:34;;;;;;;17.98;13.93;;;12.50;99.90;;;;;;4961850;28;20033;-89
2022/04/16 08:49:00;;;;;;;18.20;14.85;;;12.70;99.90;;;;;;4977007;28;20026;-87
2022/04/16 08:51:27;;;;;;;20.58;14.63;;;12.80;99.90;;;;;;4994603;28;20030;-89
2022/04/16 08:53:53;;;;;;;17.98;14.07;;;12.80;99.90;;;;;;4997148;28;20018;-88
2022/04/16 08:56:19;;;;;;;18.65;15.18;;;12.90;99.90;;;;;;4977312;28;20018;-87
2022/04/16 08:58:52;;;;;;;17.25;13.52;;;13.00;99.90;;;;;;4977189;28;20360;-87
2022/04/16 09:01:18;;;;;;;20.75;14.27;;;13.10;99.90;;;;;;4977323;28;20483;-88
2022/04/16 09:03:49;;;;;;;17.77;13.45;;;13.20;99.90;;;;;;4977574;28;20068;-87
2022/04/16 09:06:22;;;;;;;17.67;13.00;;;13.30;99.90;;;;;;4994580;28;20104;-87
2022/04/16 09:08:48;;;;;;;17.65;13.02;;;13.40;99.90;;;;;;4995344;28;20102;-87
2022/04/16 09:11:13;;;;;;;15.40;12.50;;;13.50;99.90;;;;;;4976881;28;20030;-87
2022/04/16 09:13:55;;;;;;;14.93;12.18;;;13.60;99.90;;;;;;4961441;28;20026;-87
2022/04/16 09:16:27;;;;;;;14.90;11.98;;;13.70;99.90;;;;;;5013070;28;20037;-87
2022/04/16 09:18:55;;;;;;;15.20;10.75;;;13.80;99.90;;;;;;5066128;22;20064;-85
2022/04/16 09:21:26;;;;;;;16.30;12.10;;;13.90;99.90;;;;;;4966563;28;20031;-86
2022/04/16 09:23:57;;;;;;;17.30;11.63;;;14.00;99.90;;;;;;4997479;28;20046;-85
2022/04/16 09:26:55;;;;;;;15.77;11.43;;;14.10;99.90;;;;;;4996364;28;20460;-86
2022/04/16 09:29:24;;;;;;;14.15;10.77;;;14.10;99.90;;;;;;4954830;28;20062;-87
2022/04/16 09:31:51;;;;;;;13.25;10.30;;;14.20;99.90;;;;;;4997409;28;20023;-85
2022/04/16 09:34:22;;;;;;;12.82;10.23;;;14.30;99.90;;;;;;5000594;28;20488;-86
2022/04/16 09:36:48;;;;;;;13.23;10.73;;;14.40;99.90;;;;;;4979974;28;20126;-85
2022/04/16 09:39:15;;;;;;;13.63;10.10;;;14.50;99.90;;;;;;4995944;28;20515;-85
2022/04/16 09:41:53;;;;;;;13.80;11.35;;;14.50;99.90;;;;;;4993501;28;20095;-85
2022/04/16 09:44:21;;;;;;;14.10;10.68;;;14.60;99.90;;;;;;4997378;28;20109;-86
2022/04/16 09:46:48;;;;;;;12.73;10.30;;;14.60;99.90;;;;;;4979359;28;20058;-86
2022/04/16 09:49:14;;;;;;;12.90;10.10;;;14.70;99.90;;;;;;4996614;28;20033;-86
2022/04/16 09:51:45;;;;;;;14.40;10.98;;;14.80;99.90;;;;;;4967467;28;20038;-87
2022/04/16 09:54:12;;;;;;;14.02;10.38;;;14.90;99.90;;;;;;4980225;28;20034;-87
2022/04/16 09:56:40;;;;;;;12.82;9.95;;;14.90;99.90;;;;;;4996108;28;20030;-86
2022/04/16 09:59:08;;;;;;;13.70;10.68;;;15.00;99.90;;;;;;4999153;28;20488;-86
2022/04/16 10:01:34;;;;;;;13.02;10.50;;;15.10;99.90;;;;;;4980710;28;20050;-85
2022/04/16 10:04:01;;;;;;;14.68;9.88;;;15.10;99.90;;;;;;4979637;28;20026;-86
2022/04/16 10:06:30;;;;;;;14.85;10.20;;;15.20;99.90;;;;;;4996098;28;20472;-84
2022/04/16 10:09:13;;;;;;;13.23;9.75;;;15.30;99.90;;;;;;4979823;28;20034;-85
2022/04/16 10:14:44;;;;;;;13.35;8.50;;;15.40;99.90;;;;;;4997472;28;20121;-85
2022/04/16 10:17:42;;;;;;;13.23;8.85;;;15.50;99.90;;;;;;4995620;28;20116;-85
2022/04/16 10:20:11;;;;;;;11.48;8.73;;;15.60;99.90;;;;;;4995512;28;20073;-83
2022/04/16 10:22:38;;;;;;;11.30;8.85;;;15.60;99.90;;;;;;4995701;28;20053;-85
2022/04/16 10:25:04;;;;;;;10.93;8.07;;;15.70;99.90;;;;;;4995535;28;20018;-83
2022/04/16 10:27:32;;;;;;;11.30;7.85;;;15.70;99.50;;;;;;4979115;28;20030;-81
2022/04/16 10:30:03;;;;;;;12.23;7.97;;;15.70;99.10;;;;;;4995262;28;20019;-84
2022/04/16 10:32:42;;;;;;;11.43;7.93;;;15.70;99.00;;;;;;4995507;28;20026;-83
2022/04/16 10:35:16;;;;;;;8.88;6.90;;;15.80;99.20;;;;;;4995442;28;20069;-83
2022/04/16 10:37:44;;;;;;;10.23;7.53;;;15.90;99.70;;;;;;4996789;28;20034;-84
2022/04/16 10:40:23;;;;;;;12.30;8.32;;;15.90;99.30;;;;;;4998596;28;20117;-84
2022/04/16 10:43:08;;;;;;;9.90;6.93;;;16.00;98.50;;;;;;4997994;28;20026;-84
2022/04/16 10:45:36;;;;;;;7.50;5.53;;;16.10;97.90;;;;;;4979628;28;20034;-84
2022/04/16 10:48:03;;;;;;;7.25;4.50;;;16.20;97.40;;;;;;4980782;28;20100;-84
2022/04/16 10:50:32;;;;;;;7.65;4.70;;;16.30;97.10;;;;;;4995243;28;20015;-85
2022/04/16 10:53:02;;;;;;;7.15;4.65;;;16.40;96.00;;;;;;4996235;28;20018;-85
2022/04/16 10:55:32;;;;;;;7.30;4.57;;;16.40;95.20;;;;;;4994900;28;20721;-85
2022/04/16 10:57:59;;;;;;;6.95;4.75;;;16.40;94.40;;;;;;4995265;28;20109;-87
2022/04/16 11:00:36;;;;;;;8.30;4.55;;;16.50;93.60;;;;;;4995500;28;20028;-86
2022/04/16 11:06:35;;;;;;;7.43;4.78;;;16.60;93.60;;;;;;4950215;28;20042;-86
2022/04/16 11:09:01;;;;;;;5.60;3.97;;;16.60;92.30;;;;;;4960683;28;20026;-87
2022/04/16 11:11:27;;;;;;;6.68;4.70;;;16.70;93.00;;;;;;4977728;28;20103;-89
2022/04/16 11:13:53;;;;;;;6.82;4.40;;;16.80;93.20;;;;;;4969846;28;20038;-90
2022/04/16 11:16:22;;;;;;;7.82;5.28;;;16.80;93.00;;;;;;4981192;28;20086;-90
2022/04/16 11:18:48;;;;;;;7.65;5.35;;;17.00;92.20;;;;;;4952492;28;20042;-93
2022/04/16 11:21:21;;;;;;;8.60;5.47;;;17.00;91.20;;;;;;4963135;28;20539;-90
2022/04/16 11:23:52;;;;;;;6.95;4.75;;;17.00;91.40;;;;;;4964334;28;20027;-89
2022/04/16 11:34:41;;;;;;;5.85;4.03;;;17.40;90.60;;;;;;4968477;28;20467;-89
2022/04/16 11:37:07;;;;;;;6.18;4.18;;;17.50;89.90;;;;;;4988015;28;20022;-88
2022/04/16 11:39:34;;;;;;;6.47;4.45;;;17.50;89.70;;;;;;4989638;28;20027;-89
2022/04/16 11:42:05;;;;;;;5.55;3.60;;;17.60;90.00;;;;;;4974473;28;20023;-90
2022/04/16 11:44:41;;;;;;;;;;;17.70;88.20;;;;;;4988785;28;20003;-87
2022/04/16 11:47:27;;;;;;;5.63;3.67;;;17.80;86.50;;;;;;4987781;28;19910;-89
2022/04/16 11:49:55;;;;;;;7.35;4.00;;;17.80;85.40;;;;;;4987654;28;20032;-89
2022/04/16 11:52:29;;;;;;;6.88;3.75;;;17.90;84.30;;;;;;4987928;28;20094;-90
2022/04/16 11:55:02;;;;;;;4.65;3.33;;;17.90;83.20;;;;;;4965339;28;20059;-88
2022/04/16 11:57:28;;;;;;;6.10;3.78;;;18.00;83.20;;;;;;4986573;28;20054;-88
2022/04/16 12:00:08;;;;;;;6.18;4.25;;;18.00;82.70;;;;;;4960461;28;20030;-87
2022/04/16 12:02:40;;;;;;;7.77;3.97;;;18.10;80.10;;;;;;4980486;28;20074;-88
2022/04/16 12:05:11;;;;;;;6.38;3.70;;;18.20;79.90;;;;;;4984027;28;20487;-88
2022/04/16 12:07:39;;;;;;;;;;;18.20;79.70;;;;;;4981154;28;20057;-87
2022/04/16 12:10:05;;;;;;;4.93;3.25;;;18.30;79.40;;;;;;4981065;28;19906;-88
2022/04/16 12:12:48;;;;;;;5.38;3.83;;;18.30;79.00;;;;;;4980289;28;20053;-89
2022/04/16 12:15:28;;;;;;;6.57;3.35;;;18.40;76.70;;;;;;4980543;28;20511;-88
2022/04/16 12:17:55;;;;;;;5.60;3.90;;;18.40;77.20;;;;;;4980681;28;20070;-88
2022/04/16 12:20:22;;;;;;;6.07;3.90;;;18.50;76.30;;;;;;4963013;28;20124;-89
2022/04/16 12:22:50;;;;;;;6.10;3.47;;;18.60;75.10;;;;;;4966060;28;20019;-89
2022/04/16 12:25:18;;;;;;;4.60;2.70;;;18.60;74.30;;;;;;4968171;28;20034;-94
2022/04/16 12:27:49;;;;;;;5.88;3.40;;;18.60;74.40;;;;;;4983279;28;20094;-93
2022/04/16 12:30:18;;;;;;;;;;;18.80;73.80;;;;;;4967516;28;20097;-92
2022/04/16 12:32:58;;;;;;;5.68;2.92;;;18.80;70.60;;;;;;4987412;28;19917;-93
2022/04/16 12:35:25;;;;;;;4.55;2.70;;;18.80;70.00;;;;;;4980993;28;20027;-89
2022/04/16 12:37:53;;;;;;;6.80;3.20;;;18.90;68.50;;;;;;4979454;28;20388;-94
2022/04/16 12:40:22;;;;;;;6.68;3.00;;;18.90;69.10;;;;;;4981435;28;20022;-91
2022/04/16 12:42:53;;;;;;;5.57;2.80;;;18.90;68.60;;;;;;4980972;28;20034;-94
2022/04/16 12:45:20;;;;;;;;;;;19.00;67.90;;;;;;4980661;28;20018;-94
2022/04/16 12:47:46;;;;;;;4.47;3.05;;;19.10;67.60;;;;;;4980361;28;19912;-95
2022/04/16 12:50:12;;;;;;;5.72;3.38;;;19.20;67.60;;;;;;4980735;28;20050;-94
2022/04/16 12:52:38;;;;;;;6.05;2.90;;;19.30;66.20;;;;;;4984212;28;20069;-92
2022/04/16 12:55:04;;;;;;;4.07;2.67;;;19.30;64.30;;;;;;4976729;28;20099;-92
2022/04/16 12:57:30;;;;;;;4.30;2.70;;;19.30;61.10;;;;;;4976384;28;20105;-93
2022/04/16 12:59:55;;;;;;;4.53;2.55;;;19.30;60.50;;;;;;4946221;28;20041;-92
2022/04/16 13:02:21;;;;;;;5.47;2.95;;;19.40;60.90;;;;;;4946193;28;20046;-93
2022/04/16 13:04:47;;;;;;;4.22;2.80;;;19.40;60.80;;;;;;4964274;28;20122;-94
2022/04/16 13:07:13;;;;;;;13.75;4.72;;;19.50;60.20;;;;;;4981072;28;20029;-94